createdAt,value
2022-09-10T00:00:48.758Z,62.44
2022-09-10T00:02:51.280Z,62.06
2022-09-10T00:04:53.847Z,62.23
2022-09-10T00:06:57.524Z,62.15
2022-09-10T00:09:02.142Z,62.35
2022-09-10T00:11:06.986Z,62.28
2022-09-10T00:13:10.290Z,62.35
2022-09-10T00:15:13.883Z,62.17
2022-09-10T00:17:17.752Z,62.52
2022-09-10T00:19:21.794Z,62.49
2022-09-10T00:21:27.241Z,62.49
2022-09-10T00:23:30.667Z,62.77
2022-09-10T00:25:33.247Z,63.03
2022-09-10T00:27:36.759Z,62.60
2022-09-10T00:29:39.317Z,63.02
2022-09-10T00:31:42.475Z,62.44
2022-09-10T00:33:46.620Z,63.12
2022-09-10T00:35:50.060Z,63.68
2022-09-10T00:37:52.621Z,63.69
2022-09-10T00:39:56.448Z,63.16
2022-09-10T00:41:59.218Z,63.35
2022-09-10T00:44:04.733Z,63.29
2022-09-10T00:46:07.775Z,63.30
2022-09-10T00:48:15.997Z,63.37
2022-09-10T00:50:25.653Z,62.99
2022-09-10T00:52:29.345Z,63.46
2022-09-10T00:54:35.743Z,64.19
2022-09-10T00:56:39.074Z,63.90
2022-09-10T00:58:43.142Z,63.62
2022-09-10T01:00:46.139Z,63.61
2022-09-10T01:02:48.700Z,63.89
2022-09-10T01:04:52.017Z,63.73
2022-09-10T01:06:56.765Z,63.94
2022-09-10T01:09:00.027Z,63.96
2022-09-10T01:11:16.484Z,64.06
2022-09-10T01:13:35.376Z,64.06
2022-09-10T01:15:47.313Z,64.00
2022-09-10T01:18:04.749Z,64.13
2022-09-10T01:20:51.136Z,64.29
2022-09-10T01:23:18.173Z,64.17
2022-09-10T01:25:30.448Z,64.07
2022-09-10T01:27:43.579Z,63.52
2022-09-10T01:29:52.136Z,63.92
2022-09-10T01:32:00.703Z,64.76
2022-09-10T01:34:09.183Z,65.40
2022-09-10T01:36:17.258Z,65.35
2022-09-10T01:38:25.264Z,65.63
2022-09-10T01:40:30.980Z,65.29
2022-09-10T01:42:33.560Z,65.83
2022-09-10T01:44:45.422Z,66.57
2022-09-10T01:46:55.201Z,66.86
2022-09-10T01:49:10.734Z,66.47
2022-09-10T01:51:23.779Z,66.16
2022-09-10T01:54:00.105Z,66.77
2022-09-10T01:56:12.746Z,66.91
2022-09-10T01:58:22.616Z,66.85
2022-09-10T02:00:27.742Z,66.28
2022-09-10T02:02:36.441Z,65.92
2022-09-10T02:04:39.321Z,66.18
2022-09-10T02:06:45.405Z,66.58
2022-09-10T02:08:52.618Z,65.03
2022-09-10T02:10:59.228Z,63.70
2022-09-10T02:13:01.810Z,63.30
2022-09-10T02:15:07.984Z,62.42
2022-09-10T02:17:12.424Z,63.18
2022-09-10T02:19:16.693Z,62.60
2022-09-10T02:21:19.479Z,64.14
2022-09-10T02:23:25.991Z,63.19
2022-09-10T02:25:34.386Z,65.29
2022-09-10T02:27:38.320Z,64.55
2022-09-10T02:29:41.056Z,65.15
2022-09-10T02:31:44.754Z,65.89
2022-09-10T02:33:48.674Z,66.39
2022-09-10T02:35:52.042Z,66.31
2022-09-10T02:37:54.689Z,65.95
2022-09-10T02:39:57.281Z,65.09
2022-09-10T02:42:00.039Z,66.01
2022-09-10T02:44:03.455Z,66.56
2022-09-10T02:46:07.119Z,67.32
2022-09-10T02:48:09.777Z,68.04
2022-09-10T02:50:13.612Z,67.36
2022-09-10T02:52:16.275Z,68.06
2022-09-10T02:54:19.909Z,68.31
2022-09-10T02:56:22.935Z,68.39
2022-09-10T02:58:25.584Z,68.09
2022-09-10T03:00:28.128Z,67.39
2022-09-10T03:02:30.645Z,68.81
2022-09-10T03:04:33.180Z,68.51
2022-09-10T03:06:38.078Z,68.88
2022-09-10T03:08:40.811Z,69.42
2022-09-10T03:10:43.391Z,69.81
2022-09-10T03:12:47.937Z,69.80
2022-09-10T03:14:50.752Z,69.97
2022-09-10T03:16:53.309Z,69.95
2022-09-10T03:18:55.839Z,69.97
2022-09-10T03:21:09.492Z,70.38
2022-09-10T03:23:13.420Z,70.41
2022-09-10T03:25:16.150Z,71.10
2022-09-10T03:27:20.477Z,71.31
2022-09-10T03:29:24.415Z,71.22
2022-09-10T03:31:28.058Z,70.10
2022-09-10T03:33:30.890Z,70.62
2022-09-10T03:35:33.415Z,70.35
2022-09-10T03:37:35.944Z,71.19
2022-09-10T03:39:39.924Z,71.52
2022-09-10T03:41:42.518Z,72.31
2022-09-10T03:43:45.092Z,72.08
2022-09-10T03:45:49.155Z,71.87
2022-09-10T03:47:51.962Z,72.31
2022-09-10T03:49:56.133Z,72.58
2022-09-10T03:51:58.640Z,72.74
2022-09-10T03:54:02.498Z,72.83
2022-09-10T03:56:06.970Z,72.91
2022-09-10T03:58:09.542Z,72.66
2022-09-10T04:00:12.855Z,72.41
2022-09-10T04:02:15.595Z,72.26
2022-09-10T04:04:18.340Z,72.02
2022-09-10T04:06:20.978Z,72.62
2022-09-10T04:08:23.603Z,73.17
2022-09-10T04:10:26.542Z,72.90
2022-09-10T04:12:32.147Z,72.95
2022-09-10T04:14:35.045Z,73.29
2022-09-10T04:16:37.702Z,73.22
2022-09-10T04:18:40.508Z,73.75
2022-09-10T04:20:46.930Z,73.20
2022-09-10T04:22:51.453Z,72.77
2022-09-10T04:24:54.033Z,73.24
2022-09-10T04:26:57.644Z,73.33
2022-09-10T04:29:01.619Z,73.30
2022-09-10T04:31:04.148Z,73.57
2022-09-10T04:33:07.749Z,73.67
2022-09-10T04:35:10.890Z,73.63
2022-09-10T04:37:16.172Z,74.27
2022-09-10T04:39:21.738Z,74.31
2022-09-10T04:41:24.275Z,73.98
2022-09-10T04:43:27.435Z,74.26
2022-09-10T04:45:33.042Z,73.88
2022-09-10T04:47:35.617Z,74.22
2022-09-10T04:49:38.142Z,74.47
2022-09-10T04:51:40.647Z,74.74
2022-09-10T04:53:43.197Z,74.54
2022-09-10T04:55:47.671Z,74.33
2022-09-10T04:57:50.209Z,74.28
2022-09-10T04:59:53.713Z,74.67
2022-09-10T05:01:57.762Z,74.87
2022-09-10T05:04:00.408Z,74.81
2022-09-10T05:06:03.066Z,74.77
2022-09-10T05:08:08.103Z,74.75
2022-09-10T05:10:10.934Z,74.66
2022-09-10T05:12:13.555Z,74.67
2022-09-10T05:14:16.421Z,73.88
2022-09-10T05:16:19.010Z,73.52
2022-09-10T05:18:22.959Z,73.56
2022-09-10T05:20:27.678Z,73.74
2022-09-10T05:22:37.233Z,73.94
2022-09-10T05:24:44.135Z,74.07
2022-09-10T05:26:47.182Z,73.95
2022-09-10T05:28:51.218Z,74.19
2022-09-10T05:30:53.783Z,72.95
2022-09-10T05:32:56.350Z,73.40
2022-09-10T05:35:00.215Z,73.88
2022-09-10T05:37:02.779Z,73.97
2022-09-10T05:39:05.623Z,73.94
2022-09-10T05:41:10.457Z,73.46
2022-09-10T05:43:13.061Z,74.35
2022-09-10T05:45:15.976Z,75.00
2022-09-10T05:47:18.556Z,75.00
2022-09-10T05:49:21.089Z,74.92
2022-09-10T05:51:28.611Z,74.87
2022-09-10T05:53:31.220Z,74.58
2022-09-10T05:55:33.762Z,74.09
2022-09-10T05:57:36.459Z,72.30
2022-09-10T05:59:39.724Z,73.14
2022-09-10T06:01:42.417Z,73.31
2022-09-10T06:03:45.243Z,71.96
2022-09-10T06:05:50.345Z,72.07
2022-09-10T06:07:54.244Z,72.45
2022-09-10T06:09:57.568Z,71.31
2022-09-10T06:12:00.187Z,71.86
2022-09-10T06:14:02.747Z,71.86
2022-09-10T06:16:07.334Z,71.47
2022-09-10T06:18:10.265Z,71.38
2022-09-10T06:20:15.614Z,70.92
2022-09-10T06:22:18.377Z,72.16
2022-09-10T06:24:22.507Z,71.58
2022-09-10T06:26:25.539Z,71.67
2022-09-10T06:28:28.484Z,71.34
2022-09-10T06:30:31.107Z,71.52
2022-09-10T06:32:34.939Z,71.59
2022-09-10T06:34:37.497Z,72.38
2022-09-10T06:36:41.404Z,72.51
2022-09-10T06:38:45.011Z,72.86
2022-09-10T06:40:54.696Z,72.12
2022-09-10T06:42:57.216Z,72.42
2022-09-10T06:45:00.354Z,72.31
2022-09-10T06:47:39.433Z,72.29
2022-09-10T06:49:25.747Z,70.89
2022-09-10T06:51:29.461Z,70.74
2022-09-10T06:53:33.596Z,70.63
2022-09-10T06:55:36.234Z,71.14
2022-09-10T06:57:40.451Z,71.15
2022-09-10T06:59:43.715Z,69.93
2022-09-10T07:01:47.304Z,71.48
2022-09-10T07:03:55.214Z,71.31
2022-09-10T07:05:57.740Z,70.41
2022-09-10T07:08:00.323Z,70.37
2022-09-10T07:10:02.869Z,69.35
2022-09-10T07:12:05.925Z,68.74
2022-09-10T07:14:12.258Z,69.16
2022-09-10T07:16:18.606Z,69.24
2022-09-10T07:18:21.203Z,69.69
2022-09-10T07:20:25.634Z,68.50
2022-09-10T07:22:28.194Z,68.82
2022-09-10T07:24:30.763Z,67.76
2022-09-10T07:26:33.665Z,67.95
2022-09-10T07:28:37.259Z,66.90
2022-09-10T07:30:41.596Z,67.61
2022-09-10T07:32:45.760Z,67.20
2022-09-10T07:34:48.280Z,68.23
2022-09-10T07:36:50.902Z,68.34
2022-09-10T07:38:55.111Z,68.14
2022-09-10T07:41:00.247Z,68.33
2022-09-10T07:43:02.824Z,68.07
2022-09-10T07:45:07.117Z,67.85
2022-09-10T07:47:11.077Z,66.80
2022-09-10T07:49:14.040Z,65.77
2022-09-10T07:51:19.123Z,66.09
2022-09-10T07:53:21.881Z,65.60
2022-09-10T07:55:24.463Z,63.97
2022-09-10T07:57:28.601Z,64.43
2022-09-10T07:59:31.162Z,64.78
2022-09-10T08:01:37.036Z,65.48
2022-09-10T08:03:41.489Z,66.05
2022-09-10T08:05:44.070Z,64.97
2022-09-10T08:07:46.658Z,64.36
2022-09-10T08:09:49.277Z,65.24
2022-09-10T08:11:52.113Z,65.85
2022-09-10T08:13:56.739Z,66.43
2022-09-10T08:15:59.465Z,65.66
2022-09-10T08:18:02.293Z,66.19
2022-09-10T08:20:08.696Z,67.13
2022-09-10T08:22:13.595Z,67.65
2022-09-10T08:24:16.379Z,66.37
2022-09-10T08:26:20.007Z,66.90
2022-09-10T08:28:25.567Z,66.54
2022-09-10T08:30:28.891Z,65.54
2022-09-10T08:32:31.783Z,66.01
2022-09-10T08:34:34.397Z,66.03
2022-09-10T08:36:38.357Z,64.49
2022-09-10T08:38:41.354Z,64.22
2022-09-10T08:40:44.569Z,63.59
2022-09-10T08:42:50.052Z,63.27
2022-09-10T08:44:58.275Z,64.04
2022-09-10T08:47:07.293Z,64.56
2022-09-10T08:49:14.929Z,63.89
2022-09-10T08:51:27.502Z,64.38
2022-09-10T08:53:43.725Z,62.81
2022-09-10T08:55:49.089Z,63.67
2022-09-10T08:57:57.026Z,63.90
2022-09-10T09:00:02.930Z,61.31
2022-09-10T09:02:31.878Z,61.47
2022-09-10T09:04:46.922Z,62.07
2022-09-10T09:06:54.660Z,60.40
2022-09-10T09:09:00.859Z,59.62
2022-09-10T09:11:11.862Z,60.38
2022-09-10T09:13:31.403Z,59.87
2022-09-10T09:15:44.470Z,61.00
2022-09-10T09:18:04.772Z,59.97
2022-09-10T09:20:17.999Z,60.27
2022-09-10T09:22:22.121Z,60.04
2022-09-10T09:24:35.415Z,61.57
2022-09-10T09:26:38.264Z,61.19
2022-09-10T09:28:44.947Z,60.80
2022-09-10T09:30:50.375Z,60.88
2022-09-10T09:32:53.345Z,60.78
2022-09-10T09:35:00.973Z,61.56
2022-09-10T09:37:05.641Z,61.49
2022-09-10T09:39:17.526Z,62.16
2022-09-10T09:41:30.874Z,61.05
2022-09-10T09:43:43.320Z,61.17
2022-09-10T09:45:47.598Z,61.04
2022-09-10T09:47:51.130Z,60.48
2022-09-10T09:49:53.930Z,61.29
2022-09-10T09:51:56.536Z,62.25
2022-09-10T09:54:39.370Z,60.52
2022-09-10T09:56:32.964Z,60.03
2022-09-10T09:58:37.288Z,59.73
2022-09-10T10:00:39.848Z,60.06
2022-09-10T10:02:42.644Z,60.02
2022-09-10T10:04:56.190Z,59.03
2022-09-10T10:07:00.998Z,59.63
2022-09-10T10:09:06.899Z,58.63
2022-09-10T10:11:10.233Z,59.02
2022-09-10T10:13:22.595Z,59.73
2022-09-10T10:15:37.638Z,60.25
2022-09-10T10:17:43.429Z,58.80
2022-09-10T10:19:58.891Z,58.95
2022-09-10T10:22:21.972Z,58.19
2022-09-10T10:24:32.636Z,56.93
2022-09-10T10:26:37.923Z,58.07
2022-09-10T10:28:47.334Z,56.79
2022-09-10T10:30:53.309Z,57.20
2022-09-10T10:32:57.970Z,57.04
2022-09-10T10:35:16.418Z,55.95
2022-09-10T10:37:27.894Z,56.45
2022-09-10T10:39:49.379Z,56.79
2022-09-10T10:42:04.284Z,57.29
2022-09-10T10:44:40.596Z,56.63
2022-09-10T10:46:53.968Z,57.76
2022-09-10T10:49:06.736Z,58.24
2022-09-10T10:51:18.192Z,57.74
2022-09-10T10:53:43.823Z,57.93
2022-09-10T10:55:55.314Z,58.04
2022-09-10T10:58:22.925Z,56.70
2022-09-10T11:00:27.554Z,57.74
2022-09-10T11:02:40.499Z,58.20
2022-09-10T11:04:46.913Z,58.56
2022-09-10T11:06:56.160Z,58.93
2022-09-10T11:09:06.048Z,58.58
2022-09-10T11:11:14.602Z,58.81
2022-09-10T11:13:22.130Z,58.45
2022-09-10T11:15:36.009Z,58.92
2022-09-10T11:17:46.458Z,58.87
2022-09-10T11:20:24.267Z,58.95
2022-09-10T11:22:24.688Z,60.18
2022-09-10T11:24:34.031Z,59.58
2022-09-10T11:26:41.420Z,59.36
2022-09-10T11:28:57.578Z,59.91
2022-09-10T11:31:07.727Z,57.84
2022-09-10T11:33:18.481Z,58.14
2022-09-10T11:35:26.633Z,57.76
2022-09-10T11:37:44.885Z,56.20
2022-09-10T11:39:52.349Z,57.42
2022-09-10T11:41:56.485Z,57.32
2022-09-10T11:44:08.797Z,57.04
2022-09-10T11:46:16.301Z,57.47
2022-09-10T11:48:24.553Z,57.70
2022-09-10T11:50:34.467Z,58.01
2022-09-10T11:52:38.103Z,57.64
2022-09-10T11:54:42.131Z,56.87
2022-09-10T11:56:59.609Z,56.76
2022-09-10T11:59:19.329Z,56.62
2022-09-10T12:01:36.274Z,56.75
2022-09-10T12:04:02.228Z,56.70
2022-09-10T12:06:10.305Z,55.79
2022-09-10T12:08:21.682Z,56.75
2022-09-10T12:10:33.257Z,55.54
2022-09-10T12:12:42.912Z,55.11
2022-09-10T12:14:45.578Z,55.00
2022-09-10T12:16:53.641Z,54.49
2022-09-10T12:18:58.801Z,54.28
2022-09-10T12:21:08.373Z,54.21
2022-09-10T12:23:18.012Z,54.25
2022-09-10T12:25:33.936Z,54.01
2022-09-10T12:27:49.177Z,53.09
2022-09-10T12:29:51.774Z,53.61
2022-09-10T12:32:27.096Z,52.84
2022-09-10T12:34:29.687Z,53.04
2022-09-10T12:37:15.837Z,51.35
2022-09-10T12:39:24.549Z,51.00
2022-09-10T12:41:56.550Z,50.91
2022-09-10T12:43:59.932Z,48.97
2022-09-10T12:46:05.537Z,46.38
2022-09-10T12:48:14.173Z,47.10
2022-09-10T12:50:30.856Z,46.21
2022-09-10T12:52:45.799Z,47.22
2022-09-10T12:54:59.280Z,46.00
2022-09-10T12:57:30.958Z,44.83
2022-09-10T12:59:58.828Z,44.36
2022-09-10T13:02:01.689Z,42.33
2022-09-10T13:04:07.804Z,41.57
2022-09-10T13:06:10.839Z,41.18
2022-09-10T13:08:21.339Z,40.01
2022-09-10T13:10:27.403Z,40.52
2022-09-10T13:12:32.857Z,39.13
2022-09-10T13:14:39.582Z,38.47
2022-09-10T13:16:43.633Z,39.33
2022-09-10T13:18:47.662Z,39.70
2022-09-10T13:20:51.757Z,41.13
2022-09-10T13:22:57.997Z,42.83
2022-09-10T13:25:25.142Z,43.17
2022-09-10T13:27:38.942Z,44.69
2022-09-10T13:29:45.955Z,43.43
2022-09-10T13:31:58.111Z,43.54
2022-09-10T13:34:28.473Z,43.95
2022-09-10T13:36:43.286Z,44.27
2022-09-10T13:39:14.600Z,45.67
2022-09-10T13:41:32.470Z,45.99
2022-09-10T13:43:53.745Z,46.25
2022-09-10T13:46:00.528Z,47.18
2022-09-10T13:48:10.849Z,47.02
2022-09-10T13:50:16.352Z,47.59
2022-09-10T13:52:26.350Z,48.47
2022-09-10T13:54:34.899Z,48.57
2022-09-10T13:56:38.857Z,48.28
2022-09-10T13:58:49.000Z,47.44
2022-09-10T14:00:55.917Z,47.90
2022-09-10T14:03:00.477Z,48.24
2022-09-10T14:05:03.095Z,48.11
2022-09-10T14:07:13.049Z,48.92
2022-09-10T14:09:18.350Z,49.52
2022-09-10T14:11:24.721Z,49.90
2022-09-10T14:13:33.568Z,50.15
2022-09-10T14:15:40.705Z,50.86
2022-09-10T14:17:47.752Z,50.90
2022-09-10T14:19:54.573Z,51.00
2022-09-10T14:21:58.093Z,51.22
2022-09-10T14:24:01.100Z,51.12
2022-09-10T14:26:17.455Z,51.39
2022-09-10T14:28:24.255Z,51.75
2022-09-10T14:30:30.271Z,52.11
2022-09-10T14:32:36.205Z,51.62
2022-09-10T14:34:38.759Z,52.44
2022-09-10T14:36:41.306Z,52.06
2022-09-10T14:38:45.753Z,51.81
2022-09-10T14:40:49.677Z,51.90
2022-09-10T14:42:53.594Z,52.13
2022-09-10T14:44:56.260Z,51.56
2022-09-10T14:47:01.354Z,51.96
2022-09-10T14:49:11.216Z,51.39
2022-09-10T14:51:17.435Z,51.50
2022-09-10T14:53:20.163Z,52.19
2022-09-10T14:55:25.244Z,51.86
2022-09-10T14:57:28.623Z,52.18
2022-09-10T14:59:34.468Z,52.05
2022-09-10T15:01:37.048Z,51.73
2022-09-10T15:03:40.721Z,51.21
2022-09-10T15:05:43.302Z,51.39
2022-09-10T15:07:47.349Z,50.74
2022-09-10T15:09:51.257Z,50.92
2022-09-10T15:11:56.796Z,51.31
2022-09-10T15:14:00.878Z,51.10
2022-09-10T15:16:07.156Z,50.80
2022-09-10T15:18:13.061Z,50.23
2022-09-10T15:20:17.216Z,49.23
2022-09-10T15:22:24.667Z,49.31
2022-09-10T15:24:28.292Z,48.85
2022-09-10T15:26:31.178Z,48.89
2022-09-10T15:28:34.042Z,49.37
2022-09-10T15:30:37.029Z,49.21
2022-09-10T15:32:40.982Z,48.33
2022-09-10T15:34:43.810Z,48.09
2022-09-10T15:36:47.762Z,48.38
2022-09-10T15:38:52.239Z,48.12
2022-09-10T15:41:07.808Z,48.16
2022-09-10T15:43:10.738Z,48.46
2022-09-10T15:45:13.308Z,48.40
2022-09-10T15:47:15.992Z,47.85
2022-09-10T15:49:19.959Z,48.83
2022-09-10T15:51:25.076Z,49.16
2022-09-10T15:53:28.167Z,49.98
2022-09-10T15:55:31.562Z,50.81
2022-09-10T15:57:35.999Z,51.92
2022-09-10T15:59:38.511Z,52.50
2022-09-10T16:01:43.973Z,52.82
2022-09-10T16:03:50.131Z,53.07
2022-09-10T16:05:55.026Z,52.83
2022-09-10T16:07:57.607Z,53.20
2022-09-10T16:10:00.154Z,53.59
2022-09-10T16:12:05.836Z,54.12
2022-09-10T16:14:11.979Z,54.72
2022-09-10T16:16:18.826Z,54.81
2022-09-10T16:18:21.396Z,55.05
2022-09-10T16:20:24.755Z,54.67
2022-09-10T16:22:29.863Z,54.54
2022-09-10T16:24:32.850Z,55.91
2022-09-10T16:26:38.330Z,52.54
2022-09-10T16:28:41.371Z,51.42
2022-09-10T16:30:44.531Z,50.92
2022-09-10T16:32:47.132Z,51.26
2022-09-10T16:34:49.665Z,50.66
2022-09-10T16:36:53.126Z,50.37
2022-09-10T16:38:58.848Z,51.03
2022-09-10T16:41:01.891Z,51.02
2022-09-10T16:43:04.661Z,51.62
2022-09-10T16:45:08.998Z,51.99
2022-09-10T16:47:11.702Z,52.42
2022-09-10T16:49:15.290Z,52.94
2022-09-10T16:51:19.656Z,52.98
2022-09-10T16:53:22.215Z,52.42
2022-09-10T16:55:26.163Z,52.74
2022-09-10T16:57:28.693Z,52.98
2022-09-10T16:59:31.326Z,53.32
2022-09-10T17:01:34.152Z,52.85
2022-09-10T17:03:40.968Z,52.77
2022-09-10T17:05:46.931Z,53.01
2022-09-10T17:07:49.509Z,53.82
2022-09-10T17:09:52.050Z,54.12
2022-09-10T17:11:56.110Z,53.95
2022-09-10T17:14:01.301Z,54.19
2022-09-10T17:16:16.360Z,54.04
2022-09-10T17:18:19.014Z,54.79
2022-09-10T17:20:22.440Z,54.56
2022-09-10T17:22:24.967Z,54.82
2022-09-10T17:24:28.563Z,54.23
2022-09-10T17:26:32.863Z,53.96
2022-09-10T17:28:36.869Z,54.00
2022-09-10T17:30:39.452Z,55.08
2022-09-10T17:32:41.929Z,54.55
2022-09-10T17:34:44.469Z,55.33
2022-09-10T17:36:48.659Z,55.84
2022-09-10T17:38:51.202Z,55.53
2022-09-10T17:40:58.162Z,55.59
2022-09-10T17:43:00.789Z,56.04
2022-09-10T17:45:05.609Z,55.80
2022-09-10T17:47:08.841Z,56.41
2022-09-10T17:49:13.971Z,56.32
2022-09-10T17:51:19.223Z,56.69
2022-09-10T17:53:21.777Z,58.34
2022-09-10T17:55:24.520Z,60.54
2022-09-10T17:57:27.133Z,61.00
2022-09-10T17:59:30.013Z,60.85
2022-09-10T18:01:36.203Z,61.12
2022-09-10T18:03:40.433Z,61.24
2022-09-10T18:05:43.630Z,62.09
2022-09-10T18:07:47.365Z,62.74
2022-09-10T18:09:49.947Z,62.00
2022-09-10T18:11:52.675Z,62.39
2022-09-10T18:13:57.545Z,62.30
2022-09-10T18:16:00.181Z,62.58
2022-09-10T18:18:04.405Z,62.42
2022-09-10T18:20:08.056Z,62.54
2022-09-10T18:22:11.504Z,63.19
2022-09-10T18:24:16.883Z,62.61
2022-09-10T18:26:23.136Z,62.73
2022-09-10T18:28:26.279Z,62.99
2022-09-10T18:30:29.088Z,63.69
2022-09-10T18:32:32.321Z,64.49
2022-09-10T18:34:36.267Z,65.00
2022-09-10T18:36:38.908Z,64.96
2022-09-10T18:38:42.228Z,64.91
2022-09-10T18:40:44.790Z,65.06
2022-09-10T18:42:47.935Z,64.62
2022-09-10T18:44:50.541Z,65.49
2022-09-10T18:46:54.616Z,66.04
2022-09-10T18:48:57.968Z,66.05
2022-09-10T18:51:06.377Z,66.19
2022-09-10T18:53:09.007Z,66.10
2022-09-10T18:55:12.082Z,66.00
2022-09-10T18:57:14.728Z,64.95
2022-09-10T18:59:20.413Z,65.20
2022-09-10T19:01:24.668Z,66.11
2022-09-10T19:03:27.290Z,66.37
2022-09-10T19:05:29.823Z,66.53
2022-09-10T19:07:33.711Z,66.15
2022-09-10T19:09:36.569Z,65.70
2022-09-10T19:11:40.597Z,65.60
2022-09-10T19:13:43.475Z,66.04
2022-09-10T19:15:55.131Z,65.12
2022-09-10T19:17:57.931Z,65.63
2022-09-10T19:20:00.442Z,64.16
2022-09-10T19:22:07.011Z,64.98
2022-09-10T19:24:10.961Z,65.87
2022-09-10T19:26:13.927Z,65.37
2022-09-10T19:28:16.593Z,65.34
2022-09-10T19:30:19.114Z,64.99
2022-09-10T19:32:21.640Z,65.46
2022-09-10T19:34:26.892Z,64.53
2022-09-10T19:36:33.243Z,65.75
2022-09-10T19:38:37.746Z,66.51
2022-09-10T19:40:51.323Z,66.44
2022-09-10T19:42:54.477Z,66.08
2022-09-10T19:44:57.069Z,65.88
2022-09-10T19:47:04.276Z,66.05
2022-09-10T19:49:07.508Z,65.91
2022-09-10T19:51:13.511Z,65.35
2022-09-10T19:53:16.606Z,65.04
2022-09-10T19:55:19.638Z,65.01
2022-09-10T19:57:24.565Z,64.39
2022-09-10T19:59:27.051Z,65.33
2022-09-10T20:01:32.481Z,65.24
2022-09-10T20:03:36.843Z,64.81
2022-09-10T20:05:39.669Z,64.17
2022-09-10T20:07:45.660Z,63.35
2022-09-10T20:09:48.424Z,63.78
2022-09-10T20:11:51.242Z,63.83
2022-09-10T20:13:59.021Z,64.08
2022-09-10T20:16:02.632Z,64.85
2022-09-10T20:18:05.334Z,65.52
2022-09-10T20:20:08.918Z,65.99
2022-09-10T20:22:11.661Z,66.04
2022-09-10T20:24:14.967Z,66.50
2022-09-10T20:26:19.738Z,65.34
2022-09-10T20:28:22.402Z,65.62
2022-09-10T20:30:26.955Z,66.89
2022-09-10T20:32:29.646Z,66.89
2022-09-10T20:34:32.477Z,66.52
2022-09-10T20:36:37.950Z,66.40
2022-09-10T20:38:40.603Z,68.03
2022-09-10T20:40:43.345Z,69.26
2022-09-10T20:42:45.871Z,69.08
2022-09-10T20:44:48.664Z,68.11
2022-09-10T20:46:52.823Z,69.46
2022-09-10T20:48:56.776Z,69.77
2022-09-10T20:51:01.187Z,70.36
2022-09-10T20:53:03.848Z,70.92
2022-09-10T20:55:09.977Z,70.00
2022-09-10T20:57:12.505Z,69.99
2022-09-10T20:59:16.717Z,69.19
2022-09-10T21:01:21.558Z,69.40
2022-09-10T21:03:26.025Z,69.65
2022-09-10T21:05:29.051Z,70.25
2022-09-10T21:07:31.881Z,70.37
2022-09-10T21:09:34.404Z,70.51
2022-09-10T21:11:38.926Z,71.18
2022-09-10T21:13:44.980Z,69.82
2022-09-10T21:15:47.543Z,69.73
2022-09-10T21:17:50.199Z,69.66
2022-09-10T21:19:54.115Z,71.06
2022-09-10T21:21:56.688Z,69.77
2022-09-10T21:24:01.080Z,69.50
2022-09-10T21:26:05.092Z,69.41
2022-09-10T21:28:07.624Z,69.67
2022-09-10T21:30:11.100Z,70.20
2022-09-10T21:32:13.693Z,71.09
2022-09-10T21:34:17.327Z,70.15
2022-09-10T21:36:22.145Z,70.84
2022-09-10T21:38:25.609Z,70.40
2022-09-10T21:40:28.155Z,70.01
2022-09-10T21:42:30.741Z,70.85
2022-09-10T21:44:33.775Z,71.45
2022-09-10T21:46:36.375Z,71.75
2022-09-10T21:48:39.977Z,71.89
2022-09-10T21:50:42.627Z,72.50
2022-09-10T21:52:46.488Z,71.89
2022-09-10T21:54:49.018Z,72.04
2022-09-10T21:56:52.843Z,72.45
2022-09-10T21:58:56.602Z,72.62
2022-09-10T22:00:59.689Z,70.96
2022-09-10T22:03:02.194Z,70.80
2022-09-10T22:05:05.286Z,71.03
2022-09-10T22:07:07.805Z,71.45
2022-09-10T22:09:13.844Z,69.64
2022-09-10T22:11:19.800Z,69.77
2022-09-10T22:13:23.390Z,70.50
2022-09-10T22:15:26.242Z,70.66
2022-09-10T22:17:28.798Z,69.69
2022-09-10T22:19:31.400Z,69.72
2022-09-10T22:21:36.033Z,70.71
2022-09-10T22:23:40.372Z,70.81
2022-09-10T22:25:44.246Z,70.75
2022-09-10T22:27:49.282Z,71.37
2022-09-10T22:29:51.922Z,72.17
2022-09-10T22:31:54.550Z,72.03
2022-09-10T22:33:58.956Z,70.83
2022-09-10T22:36:09.922Z,70.73
2022-09-10T22:38:19.112Z,72.22
2022-09-10T22:40:23.130Z,73.13
2022-09-10T22:42:27.324Z,73.53
2022-09-10T22:44:29.843Z,73.31
2022-09-10T22:46:33.236Z,71.70
2022-09-10T22:48:37.367Z,72.80
2022-09-10T22:50:39.885Z,73.02
2022-09-10T22:52:43.627Z,73.67
2022-09-10T22:54:46.181Z,73.86
2022-09-10T22:56:48.841Z,72.67
2022-09-10T22:58:53.887Z,73.16
2022-09-10T23:00:56.750Z,72.34
2022-09-10T23:02:59.273Z,72.69
2022-09-10T23:05:01.888Z,73.72
2022-09-10T23:07:04.520Z,73.70
2022-09-10T23:09:08.998Z,74.11
2022-09-10T23:11:15.212Z,74.62
2022-09-10T23:13:17.761Z,74.11
2022-09-10T23:15:22.457Z,74.21
2022-09-10T23:17:25.035Z,74.39
2022-09-10T23:19:29.167Z,73.90
2022-09-10T23:21:35.612Z,73.82
2022-09-10T23:23:38.257Z,71.04
2022-09-10T23:25:40.829Z,72.01
2022-09-10T23:27:43.356Z,71.48
2022-09-10T23:29:45.884Z,72.28
2022-09-10T23:31:52.834Z,72.58
2022-09-10T23:33:58.149Z,71.42
2022-09-10T23:36:00.668Z,72.24
2022-09-10T23:38:03.197Z,72.88
2022-09-10T23:40:06.998Z,72.92
2022-09-10T23:42:09.910Z,73.69
2022-09-10T23:44:12.487Z,73.87
2022-09-10T23:46:15.393Z,72.81
2022-09-10T23:48:19.257Z,73.06
2022-09-10T23:50:21.841Z,72.10
2022-09-10T23:52:24.381Z,73.34
2022-09-10T23:54:29.208Z,73.78
2022-09-10T23:56:31.826Z,73.57
2022-09-10T23:58:34.386Z,74.21
